sensor_id;sensor_type;location;lat;lon;timestamp;temperature;humidity
45735;DHT22;31446;49.632;8.328;2024-01-27T00:13:02;3.30;99.90
45735;DHT22;31446;49.632;8.328;2024-01-27T00:28:08;3.30;99.90
45735;DHT22;31446;49.632;8.328;2024-01-27T00:43:15;3.10;99.90
45735;DHT22;31446;49.632;8.328;2024-01-27T00:58:21;3.00;99.90
45735;DHT22;31446;49.632;8.328;2024-01-27T01:13:27;2.90;99.90
45735;DHT22;31446;49.632;8.328;2024-01-27T01:28:33;2.90;99.90
45735;DHT22;31446;49.632;8.328;2024-01-27T01:43:39;2.80;99.90
45735;DHT22;31446;49.632;8.328;2024-01-27T01:58:45;2.60;99.90
45735;DHT22;31446;49.632;8.328;2024-01-27T02:13:51;2.70;99.90
45735;DHT22;31446;49.632;8.328;2024-01-27T02:28:57;2.60;99.90
45735;DHT22;31446;49.632;8.328;2024-01-27T02:44:04;2.50;99.90
45735;DHT22;31446;49.632;8.328;2024-01-27T02:59:11;2.30;99.90
45735;DHT22;31446;49.632;8.328;2024-01-27T03:14:17;2.10;99.90
45735;DHT22;31446;49.632;8.328;2024-01-27T03:29:23;1.70;99.90
45735;DHT22;31446;49.632;8.328;2024-01-27T03:44:31;1.50;99.90
45735;DHT22;31446;49.632;8.328;2024-01-27T03:59:38;1.40;99.90
45735;DHT22;31446;49.632;8.328;2024-01-27T04:14:45;1.40;99.90
45735;DHT22;31446;49.632;8.328;2024-01-27T04:29:51;1.50;99.90
45735;DHT22;31446;49.632;8.328;2024-01-27T04:44:58;1.60;99.90
45735;DHT22;31446;49.632;8.328;2024-01-27T05:00:05;1.50;99.90
45735;DHT22;31446;49.632;8.328;2024-01-27T05:15:15;1.30;99.90
45735;DHT22;31446;49.632;8.328;2024-01-27T05:30:21;1.10;99.90
45735;DHT22;31446;49.632;8.328;2024-01-27T05:45:27;0.80;99.90
45735;DHT22;31446;49.632;8.328;2024-01-27T06:00:34;0.60;99.90
45735;DHT22;31446;49.632;8.328;2024-01-27T06:15:40;0.50;99.90
45735;DHT22;31446;49.632;8.328;2024-01-27T06:30:46;0.60;99.90
45735;DHT22;31446;49.632;8.328;2024-01-27T06:45:53;0.40;99.90
45735;DHT22;31446;49.632;8.328;2024-01-27T07:01:00;0.40;99.90
45735;DHT22;31446;49.632;8.328;2024-01-27T07:16:06;0.30;99.90
45735;DHT22;31446;49.632;8.328;2024-01-27T07:31:13;0.20;99.90
45735;DHT22;31446;49.632;8.328;2024-01-27T07:46:20;0.30;99.90
45735;DHT22;31446;49.632;8.328;2024-01-27T08:01:26;0.70;99.90
45735;DHT22;31446;49.632;8.328;2024-01-27T08:16:33;1.50;99.90
45735;DHT22;31446;49.632;8.328;2024-01-27T08:31:39;2.70;99.90
45735;DHT22;31446;49.632;8.328;2024-01-27T08:46:45;3.50;99.90
45735;DHT22;31446;49.632;8.328;2024-01-27T09:01:51;4.20;99.90
45735;DHT22;31446;49.632;8.328;2024-01-27T09:16:58;4.70;99.90
45735;DHT22;31446;49.632;8.328;2024-01-27T09:32:04;5.00;99.90
45735;DHT22;31446;49.632;8.328;2024-01-27T09:47:11;5.70;99.90
45735;DHT22;31446;49.632;8.328;2024-01-27T10:02:18;6.90;99.90
45735;DHT22;31446;49.632;8.328;2024-01-27T10:17:26;7.30;99.90
45735;DHT22;31446;49.632;8.328;2024-01-27T10:32:38;7.50;99.90
45735;DHT22;31446;49.632;8.328;2024-01-27T10:47:46;8.10;99.90
45735;DHT22;31446;49.632;8.328;2024-01-27T11:02:54;8.40;99.90
45735;DHT22;31446;49.632;8.328;2024-01-27T11:18:04;9.10;99.90
45735;DHT22;31446;49.632;8.328;2024-01-27T11:33:11;9.40;99.90
45735;DHT22;31446;49.632;8.328;2024-01-27T11:48:17;9.80;99.90
45735;DHT22;31446;49.632;8.328;2024-01-27T12:03:25;9.50;99.90
45735;DHT22;31446;49.632;8.328;2024-01-27T12:18:38;10.00;99.90
45735;DHT22;31446;49.632;8.328;2024-01-27T12:33:51;10.20;99.90
45735;DHT22;31446;49.632;8.328;2024-01-27T12:49:02;10.40;99.90
45735;DHT22;31446;49.632;8.328;2024-01-27T13:04:09;10.80;99.90
45735;DHT22;31446;49.632;8.328;2024-01-27T13:19:18;10.70;99.90
45735;DHT22;31446;49.632;8.328;2024-01-27T13:34:24;11.40;99.90
45735;DHT22;31446;49.632;8.328;2024-01-27T13:49:31;11.60;99.90
45735;DHT22;31446;49.632;8.328;2024-01-27T14:04:38;11.00;99.90
45735;DHT22;31446;49.632;8.328;2024-01-27T14:19:47;11.50;99.90
45735;DHT22;31446;49.632;8.328;2024-01-27T14:34:53;10.90;99.90
45735;DHT22;31446;49.632;8.328;2024-01-27T14:50:00;10.00;99.90
45735;DHT22;31446;49.632;8.328;2024-01-27T15:05:07;9.50;99.90
45735;DHT22;31446;49.632;8.328;2024-01-27T15:20:14;9.20;99.90
45735;DHT22;31446;49.632;8.328;2024-01-27T15:35:20;9.20;99.90
45735;DHT22;31446;49.632;8.328;2024-01-27T15:50:26;8.60;99.90
45735;DHT22;31446;49.632;8.328;2024-01-27T16:05:34;7.90;99.90
45735;DHT22;31446;49.632;8.328;2024-01-27T16:20:40;6.90;99.90
45735;DHT22;31446;49.632;8.328;2024-01-27T16:35:46;6.30;99.90
45735;DHT22;31446;49.632;8.328;2024-01-27T16:50:52;5.60;99.90
45735;DHT22;31446;49.632;8.328;2024-01-27T17:05:59;5.10;99.90
45735;DHT22;31446;49.632;8.328;2024-01-27T17:21:05;4.50;99.90
45735;DHT22;31446;49.632;8.328;2024-01-27T17:36:11;4.20;99.90
45735;DHT22;31446;49.632;8.328;2024-01-27T17:51:17;3.90;99.90
45735;DHT22;31446;49.632;8.328;2024-01-27T18:06:24;3.60;99.90
45735;DHT22;31446;49.632;8.328;2024-01-27T18:21:31;3.10;99.90
45735;DHT22;31446;49.632;8.328;2024-01-27T18:36:37;2.90;99.90
45735;DHT22;31446;49.632;8.328;2024-01-27T18:51:44;2.70;99.90
45735;DHT22;31446;49.632;8.328;2024-01-27T19:06:52;2.50;99.90
45735;DHT22;31446;49.632;8.328;2024-01-27T19:21:58;2.30;99.90
45735;DHT22;31446;49.632;8.328;2024-01-27T19:37:04;2.30;99.90
45735;DHT22;31446;49.632;8.328;2024-01-27T19:52:10;2.20;99.90
45735;DHT22;31446;49.632;8.328;2024-01-27T20:07:17;2.10;99.90
45735;DHT22;31446;49.632;8.328;2024-01-27T20:22:23;2.20;99.90
45735;DHT22;31446;49.632;8.328;2024-01-27T20:37:29;2.40;99.90
45735;DHT22;31446;49.632;8.328;2024-01-27T20:52:35;2.60;99.90
45735;DHT22;31446;49.632;8.328;2024-01-27T21:07:41;2.60;99.90
45735;DHT22;31446;49.632;8.328;2024-01-27T21:22:48;2.40;99.90
45735;DHT22;31446;49.632;8.328;2024-01-27T21:37:54;2.20;99.90
45735;DHT22;31446;49.632;8.328;2024-01-27T21:53:02;2.10;99.90
45735;DHT22;31446;49.632;8.328;2024-01-27T22:08:09;1.90;99.90
45735;DHT22;31446;49.632;8.328;2024-01-27T22:23:15;1.70;99.90
45735;DHT22;31446;49.632;8.328;2024-01-27T22:38:21;1.90;99.90
45735;DHT22;31446;49.632;8.328;2024-01-27T22:53:27;1.70;99.90
45735;DHT22;31446;49.632;8.328;2024-01-27T23:08:33;1.60;99.90
45735;DHT22;31446;49.632;8.328;2024-01-27T23:23:39;1.60;99.90
45735;DHT22;31446;49.632;8.328;2024-01-27T23:38:46;1.60;99.90
45735;DHT22;31446;49.632;8.328;2024-01-27T23:53:52;1.80;99.90
